KPRC/PRC METAR and TAF weather

Enter ICAO airport designator
Station Type Date Time Source
KPRC METAR 2022/01/26 18:53 UTC NOAA

KPRC 261853Z 27004KT 10SM CLR 04/M08 A3020 RMK AO2 SLP218 T00441078


Station Type Date Time Source
KPRC Decoded METAR 2022/01/26 18:53 UTC NOAA

PRESCOTT LOVE FIELD, AZ, United States (KPRC) 34-39N 112-25W 1524M
Jan 26, 2022 - 01:53 PM EST / 2022.01.26 1853 UTC
Wind: from the W (270 degrees) at 5 MPH (4 KT):0
Visibility: 10 mile(s):0
Sky conditions: clear
Temperature: 39.9 F (4.4 C)
Dew Point: 18.0 F (-7.8 C)
Relative Humidity: 40%
Pressure (altimeter): 30.2 in. Hg (1022 hPa)
ob: KPRC 261853Z 27004KT 10SM CLR 04/M08 A3020 RMK AO2 SLP218 T00441078
cycle: 19

Station Type Date Time Source
KPRC TAF 2022/01/26 18:22 UTC NOAA

TAF KPRC 261720Z 2618/2718 VRB04KT P6SM SKC

Example: see airport list